Time;durP1;ratioP1;P1;durP2;ratioP2;P2;SDS_P1;SDS_P2;PMS_P1;PMS_P2;Temp;Humidity;BMP_temperature;BMP_pressure;BME280_temperature;BME280_humidity;BME280_pressure;Samples;Min_cycle;Max_cycle;Signal;HPM_P1;HPM_P2
2022/08/07 00:00:25;;;;;;;6.93;2.55;;;;;;;17.36;64.74;102563.59;5073035;28;20078;-62
2022/08/07 00:02:54;;;;;;;8.88;2.85;;;;;;;17.30;64.61;102559.19;5072959;28;20404;-63
2022/08/07 00:05:23;;;;;;;3.53;2.40;;;;;;;17.22;65.33;102554.19;5056133;28;20044;-62
2022/08/07 00:07:52;;;;;;;4.55;2.60;;;;;;;17.20;65.38;102550.91;5055620;28;20036;-63
2022/08/07 00:10:29;;;;;;;4.35;2.30;;;;;;;17.22;65.35;102545.91;5071928;28;20449;-62
2022/08/07 00:13:00;;;;;;;7.40;2.90;;;;;;;17.21;65.27;102550.59;5055675;28;20036;-62
2022/08/07 00:15:49;;;;;;;2.67;2.13;;;;;;;17.21;65.37;102544.28;5072689;28;20053;-61
2022/08/07 00:18:20;;;;;;;5.78;2.70;;;;;;;17.19;65.45;102546.47;5055608;28;20051;-62
2022/08/07 00:20:54;;;;;;;5.25;2.60;;;;;;;17.17;65.81;102546.75;5069194;28;20044;-61
2022/08/07 00:23:23;;;;;;;4.40;2.58;;;;;;;17.10;65.86;102553.59;5072965;28;20554;-61
2022/08/07 00:25:55;;;;;;;5.00;2.92;;;;;;;17.06;66.10;102544.25;5072802;28;20442;-60
2022/08/07 00:28:31;;;;;;;5.93;2.88;;;;;;;17.07;66.34;102532.09;5072578;28;20059;-60
2022/08/07 00:31:03;;;;;;;6.05;2.95;;;;;;;17.09;66.08;102539.00;5071944;28;20513;-58
2022/08/07 00:33:34;;;;;;;6.63;2.70;;;;;;;16.97;66.43;102536.47;5055603;28;20044;-59
2022/08/07 00:36:02;;;;;;;4.68;2.70;;;;;;;16.88;67.19;102529.81;5031648;28;20029;-60
2022/08/07 00:38:31;;;;;;;6.32;2.92;;;;;;;16.87;67.04;102528.19;5069629;28;20036;-61
2022/08/07 00:41:00;;;;;;;4.72;2.70;;;;;;;16.88;66.94;102531.75;5037756;28;20048;-60
2022/08/07 00:43:28;;;;;;;4.65;2.85;;;;;;;16.88;67.13;102529.00;5073210;28;20040;-60
2022/08/07 00:46:16;;;;;;;4.40;2.80;;;;;;;16.88;67.21;102520.75;5057830;28;20044;-60
2022/08/07 00:48:44;;;;;;;5.60;2.80;;;;;;;16.88;67.05;102518.00;5054905;28;20040;-61
2022/08/07 00:51:16;;;;;;;6.88;2.80;;;;;;;16.93;67.15;102515.25;5053140;28;20090;-61
2022/08/07 00:53:44;;;;;;;7.25;2.65;;;;;;;16.88;67.18;102524.31;5073340;28;20054;-61
2022/08/07 00:56:23;;;;;;;7.60;3.00;;;;;;;16.84;67.52;102512.22;5072710;28;20033;-61
2022/08/07 00:59:00;;;;;;;5.88;2.92;;;;;;;16.79;67.67;102515.75;5073392;28;20127;-61
2022/08/07 01:01:28;;;;;;;6.28;2.70;;;;;;;16.82;67.54;102514.41;5070284;28;20044;-61
2022/08/07 01:04:10;;;;;;;6.45;2.75;;;;;;;16.86;67.60;102514.66;5056234;28;20553;-61
2022/08/07 01:06:51;;;;;;;5.47;3.00;;;;;;;16.86;67.57;102507.25;5055281;28;20083;-62
2022/08/07 01:09:20;;;;;;;7.00;2.92;;;;;;;16.85;67.43;102505.59;5005788;28;20044;-63
2022/08/07 01:12:08;;;;;;;6.57;2.70;;;;;;;16.84;67.32;102514.97;5059637;28;20051;-59
2022/08/07 01:14:59;;;;;;;3.60;2.40;;;;;;;16.84;67.39;102512.22;5040665;28;20043;-63
2022/08/07 01:17:29;;;;;;;5.70;2.72;;;;;;;16.83;67.51;102507.78;5039776;28;20426;-61
2022/08/07 01:20:12;;;;;;;4.32;2.70;;;;;;;16.80;67.70;102503.66;5040322;28;20047;-64
2022/08/07 01:22:44;;;;;;;5.68;2.92;;;;;;;16.76;67.63;102507.16;5042307;28;20394;-61
2022/08/07 01:25:33;;;;;;;6.30;2.90;;;;;;;16.71;67.68;102499.72;5043254;28;20040;-61
2022/08/07 01:28:22;;;;;;;7.05;2.90;;;;;;;16.67;68.06;102506.03;5045848;28;20067;-60
2022/08/07 01:30:53;;;;;;;4.03;3.03;;;;;;;16.64;67.86;102496.38;5041682;28;20072;-61
2022/08/07 01:33:24;;;;;;;4.32;2.88;;;;;;;16.60;68.22;102489.78;5039324;28;20060;-62
2022/08/07 01:36:12;;;;;;;4.50;3.00;;;;;;;16.60;68.30;102493.34;5032182;28;20041;-62
2022/08/07 01:38:45;;;;;;;4.78;3.20;;;;;;;16.63;68.19;102496.66;5036270;28;20491;-61
2022/08/07 01:41:20;;;;;;;5.80;3.25;;;;;;;16.64;68.24;102501.06;5058473;28;20037;-61
2022/08/07 01:43:56;;;;;;;5.30;2.83;;;;;;;16.63;68.05;102494.72;5045939;28;20128;-58
2022/08/07 01:46:25;;;;;;;8.57;3.03;;;;;;;16.59;68.12;102488.91;5044254;28;20037;-59
2022/08/07 01:48:54;;;;;;;6.95;3.22;;;;;;;16.58;68.35;102489.22;5032601;28;20128;-59
2022/08/07 01:51:26;;;;;;;5.05;2.65;;;;;;;16.56;68.62;102499.66;5052825;28;20498;-58
2022/08/07 01:54:15;;;;;;;8.00;3.20;;;;;;;16.53;68.58;102490.00;5043606;28;20487;-57
2022/08/07 01:57:15;;;;;;;5.30;3.20;;;;;;;16.51;68.36;102488.63;5043457;28;20044;-63
2022/08/07 02:00:01;;;;;;;7.65;3.60;;;;;;;16.45;69.00;102487.78;5056801;28;20040;-62
2022/08/07 02:02:54;;;;;;;4.53;2.97;;;;;;;16.43;68.80;102489.97;5074049;28;20047;-62
2022/08/07 02:05:51;;;;;;;7.80;3.30;;;;;;;16.45;68.98;102486.94;5060498;28;20043;-64
2022/08/07 02:08:28;;;;;;;;;;;;;;;16.38;69.07;102481.69;5058152;28;20046;-63
2022/08/07 02:10:58;;;;;;;;;;;;;;;16.35;69.62;102487.69;5056718;28;19927;-61
2022/08/07 02:13:29;;;;;;;;;;;;;;;16.30;69.64;102482.16;5056972;28;19920;-61
2022/08/07 02:16:17;;;;;;;;;;;;;;;16.28;69.76;102478.84;5060237;28;20367;-61
2022/08/07 02:18:54;;;;;;;;;;;;;;;16.19;70.12;102484.03;5042597;28;19927;-62
2022/08/07 02:21:24;;;;;;;;;;;;;;;16.18;69.67;102477.69;5056733;28;19967;-62
2022/08/07 02:23:52;;;;;;;;;;;;;;;16.17;70.03;102477.97;5038936;28;19921;-61
2022/08/07 02:26:20;;;;;;;;;;;;;;;16.19;69.56;102473.03;5031405;28;20019;-59
2022/08/07 02:29:04;;;;;;;;;;;;;;;16.21;69.56;102472.75;5057580;28;20034;-63
2022/08/07 02:31:41;;;;;;;;;;;;;;;16.17;69.95;102470.53;5049363;28;20282;-61
2022/08/07 02:34:08;;;;;;;;;;;;;;;16.21;69.78;102472.75;5055789;28;19927;-58
2022/08/07 02:36:44;;;;;;;;;;;;;;;16.19;69.32;102473.88;5074990;28;19924;-59
2022/08/07 02:39:16;;;;;;;;;;;;;;;16.12;69.23;102473.28;5056882;28;20019;-61
2022/08/07 02:42:05;;;;;;;;;;;;;;;16.07;69.78;102467.75;5043211;28;19928;-59
2022/08/07 02:44:43;;;;;;;;;;;;;;;16.06;69.70;102466.06;5031566;28;20322;-57
2022/08/07 02:47:15;;;;;;;;;;;;;;;16.02;69.96;102464.97;5056909;28;19928;-60
2022/08/07 02:49:52;;;;;;;;;;;;;;;16.03;70.18;102463.03;5038431;28;20019;-61
2022/08/07 02:52:30;;;;;;;;;;;;;;;16.01;70.17;102457.78;5052107;28;20322;-62
2022/08/07 02:55:00;;;;;;;;;;;;;;;16.04;69.79;102459.19;5036401;28;19920;-61
2022/08/07 02:57:30;;;;;;;;;;;;;;;16.09;69.86;102457.31;5031812;28;19978;-60
2022/08/07 03:00:03;;;;;;;;;;;;;;;16.11;69.56;102463.34;5040703;28;19920;-61
2022/08/07 03:02:43;;;;;;;;;;;;;;;16.01;69.22;102466.03;5074392;28;19946;-61
2022/08/07 03:05:22;;;;;;;;;;;;;;;15.93;70.10;102464.59;5052538;28;19921;-61
2022/08/07 03:07:51;;;;;;;;;;;;;;;15.90;70.09;102456.06;5037902;28;19951;-59
2022/08/07 03:10:35;;;;;;;;;;;;;;;15.90;70.32;102461.56;5042266;28;20002;-60
2022/08/07 03:13:08;;;;;;;;;;;;;;;15.90;70.39;102458.81;5040371;28;20444;-61
2022/08/07 03:15:35;;;;;;;;;;;;;;;15.89;70.16;102466.22;5055452;28;19920;-58
2022/08/07 03:18:24;;;;;;;;;;;;;;;15.89;70.42;102468.16;5042591;28;20486;-63
2022/08/07 03:21:04;;;;;;;;;;;;;;;15.86;70.24;102453.00;5073567;28;19920;-61
2022/08/07 03:23:39;;;;;;;;;;;;;;;15.82;70.30;102462.03;5037197;28;20462;-59
2022/08/07 03:26:29;;;;;;;;;;;;;;;15.84;70.46;102457.94;5034627;28;19928;-61
2022/08/07 03:29:00;;;;;;;;;;;;;;;15.90;70.05;102454.16;5072986;28;19974;-57
2022/08/07 03:31:30;;;;;;;;;;;;;;;15.90;70.29;102458.81;5056344;28;20329;-61
2022/08/07 03:34:12;;;;;;;;;;;;;;;15.89;70.04;102454.41;5039461;28;19926;-60
2022/08/07 03:36:51;;;;;;;;;;;;;;;15.81;69.78;102454.91;5040103;28;19921;-61
2022/08/07 03:39:21;;;;;;;;;;;;;;;15.73;70.51;102451.56;5043198;28;19921;-60
2022/08/07 03:42:08;;;;;;;;;;;;;;;15.71;71.04;102450.97;5051391;28;19960;-61
2022/08/07 03:44:36;;;;;;;;;;;;;;;15.75;71.13;102451.28;5038866;28;19920;-60
2022/08/07 03:47:05;;;;;;;;;;;;;;;15.79;70.51;102451.59;5038282;28;19920;-61
2022/08/07 03:49:44;;;;;;;;;;;;;;;15.81;70.56;102449.41;5048100;28;19928;-61
2022/08/07 03:52:21;;;;;;;;;;;;;;;15.71;71.03;102445.50;5055322;28;19950;-62
2022/08/07 03:54:56;;;;;;;;;;;;;;;15.59;71.43;102450.31;5056053;28;19959;-60
2022/08/07 03:57:35;;;;;;;;;;;;;;;15.51;71.79;102462.59;5054868;28;20389;-61
2022/08/07 04:00:22;;;;;;;;;;;;;;;15.41;71.77;102462.50;5051676;28;19963;-60
2022/08/07 04:02:58;;;;;;;;;;;;;;;15.39;72.08;102475.66;5035621;28;19920;-62
2022/08/07 04:05:34;;;;;;;;;;;;;;;15.44;72.17;102467.50;5051336;28;19928;-61
2022/08/07 04:08:12;;;;;;;;;;;;;;;15.47;71.75;102471.63;5053432;28;19950;-59
2022/08/07 04:10:47;;;;;;;;;;;;;;;15.46;71.99;102475.44;5030803;28;19959;-59
2022/08/07 04:13:35;;;;;;;;;;;;;;;15.47;72.07;102472.44;5038796;28;19970;-61
2022/08/07 04:16:22;;;;;;;;;;;;;;;15.52;71.43;102471.66;5028442;28;19927;-61
2022/08/07 04:19:02;;;;;;;;;;;;;;;15.52;71.33;102474.41;5037651;28;20015;-60
2022/08/07 04:21:41;;;;;;;;;;;;;;;15.51;71.27;102478.22;5073490;28;19951;-60
2022/08/07 04:24:33;;;;;;;;;;;;;;;15.48;71.52;102474.09;5072184;28;20378;-61
2022/08/07 04:27:10;;;;;;;;;;;;;;;15.51;71.17;102479.09;5040259;28;19920;-61
2022/08/07 04:29:52;;;;;;;;;;;;;;;15.52;71.25;102479.91;5048473;28;19927;-61
2022/08/07 04:32:37;;;;;;;;;;;;;;;15.48;71.46;102478.75;5032020;28;19921;-57
2022/08/07 04:35:11;;;;;;;;;;;;;;;15.50;71.26;102484.84;5036324;28;20379;-60
2022/08/07 04:37:39;;;;;;;;;;;;;;;15.49;71.40;102481.25;4999504;28;19921;-55
2022/08/07 04:40:27;;;;;;;;;;;;;;;15.49;71.08;102485.91;5033046;28;20399;-60
2022/08/07 04:42:58;;;;;;;;;;;;;;;15.43;71.59;102481.47;5048181;28;19921;-59
2022/08/07 04:45:37;;;;;;;;;;;;;;;15.40;71.97;102471.84;5031130;28;20272;-57
2022/08/07 04:48:25;;;;;;;;;;;;;;;15.40;71.92;102482.81;5020617;28;19979;-58
2022/08/07 04:51:03;;;;;;;;;;;;;;;15.41;72.08;102489.13;5031744;28;19921;-60
2022/08/07 04:54:05;;;;;;;;;;;;;;;15.42;72.07;102485.31;5031834;28;19925;-59
2022/08/07 04:56:39;;;;;;;;;;;;;;;15.38;72.46;102492.41;5033492;28;19928;-58
2022/08/07 04:59:29;;;;;;;;;;;;;;;15.27;72.78;102484.06;5021753;28;19929;-61
2022/08/07 05:02:29;;;;;;;;;;;;;;;15.27;72.90;102485.97;5022339;28;19921;-57
2022/08/07 05:05:06;;;;;;;;;;;;;;;15.24;73.39;102495.56;5018485;28;19921;-58
2022/08/07 05:08:07;;;;;;;;;;;;;;;15.26;73.17;102501.63;5036543;28;20286;-57
2022/08/07 05:10:44;;;;;;;;;;;;;;;15.21;73.60;102496.09;5034908;28;20004;-55
2022/08/07 05:13:39;;;;;;;;;;;;;;;15.13;74.07;102493.81;5019193;28;19936;-58
2022/08/07 05:16:27;;;;;;;;;;;;;;;15.11;74.32;102495.97;5033520;28;20291;-57
2022/08/07 05:18:58;;;;;;;;;;;;;;;15.11;74.18;102501.47;5034635;28;19928;-57
2022/08/07 05:21:28;;;;;;;;;;;;;;;15.13;74.49;102497.38;5051616;28;19978;-54
2022/08/07 05:24:16;;;;;;;;;;;;;;;15.21;73.80;102507.06;5021087;28;19952;-59
2022/08/07 05:26:43;;;;;;;;;;;;;;;15.24;73.57;102501.03;5016888;28;19921;-58
2022/08/07 05:29:14;;;;;;;;;;;;;;;15.30;73.15;102504.69;5050342;28;20011;-58
2022/08/07 05:31:42;;;;;;;;;;;;;;;15.34;73.84;102512.16;5022014;28;19970;-58
2022/08/07 05:34:22;;;;;;;;;;;;;;;15.39;73.54;102508.63;5054722;28;19920;-58
2022/08/07 05:36:54;;;;;;;;;;;;;;;15.41;73.08;102520.19;5019764;28;20015;-56
2022/08/07 05:39:29;;;;;;;;;;;;;;;15.43;72.87;102506.19;5041393;28;19927;-59
2022/08/07 05:42:17;;;;;;;;;;;;;;;15.32;72.79;102508.84;5038760;28;20260;-59
2022/08/07 05:45:01;;;;;;;;;;;;;;;15.32;73.45;102519.81;5040701;28;20023;-58
2022/08/07 05:47:46;;;;;;;;;;;;;;;15.39;73.45;102516.84;5037784;28;20383;-57
2022/08/07 05:50:36;;;;;;;;;;;;;;;15.40;72.60;102517.72;5036007;28;19928;-59
2022/08/07 05:53:10;;;;;;;;;;;;;;;15.39;73.01;102518.78;5034983;28;19970;-57
2022/08/07 05:55:58;;;;;;;;;;;;;;;15.45;73.11;102515.81;5054818;28;19987;-56
2022/08/07 05:58:35;;;;;;;;;;;;;;;15.47;73.00;102515.59;5053388;28;19921;-60
2022/08/07 06:01:08;;;;;;;;;;;;;;;15.46;73.11;102513.91;5036940;28;20389;-54
2022/08/07 06:03:40;;;;;;;;;;;;;;;15.47;73.19;102515.59;5034558;28;19978;-58
2022/08/07 06:06:24;;;;;;;;;;;;;;;15.42;73.46;102521.84;5022307;28;19960;-58
2022/08/07 06:09:00;;;;;;;;;;;;;;;15.43;73.87;102515.25;5038663;28;19927;-58
2022/08/07 06:11:32;;;;;;;;;;;;;;;15.50;73.44;102515.88;5054195;28;19987;-56
2022/08/07 06:14:01;;;;;;;;;;;;;;;15.56;73.17;102519.50;5031382;28;20367;-59
2022/08/07 06:16:49;;;;;;;;;;;;;;;15.61;73.56;102516.81;5052800;28;19921;-55
2022/08/07 06:19:26;;;;;;;;;;;;;;;15.62;73.00;102517.66;5037286;28;19928;-61
2022/08/07 06:22:15;;;;;;;;;;;;;;;15.71;73.02;102527.09;5043306;28;19920;-59
2022/08/07 06:24:58;;;;;;;;;;;;;;;15.72;73.45;102526.00;5036528;28;19948;-61
2022/08/07 06:27:29;;;;;;;;;;;;;;;15.70;72.92;102526.25;5053971;28;19920;-59
2022/08/07 06:30:16;;;;;;;;;;;;;;;15.69;72.48;102521.00;5042456;28;19921;-57
2022/08/07 06:33:05;;;;;;;;;;;;;;;15.77;73.00;102520.56;5026384;28;19925;-57
2022/08/07 06:35:44;;;;;;;;;;;;;;;15.86;72.41;102523.66;5055645;28;19927;-58
2022/08/07 06:38:31;;;;;;;;;;;;;;;15.92;72.13;102522.59;5059204;28;19927;-56
2022/08/07 06:41:03;;;;;;;;;;;;;;;15.92;72.04;102514.34;5056477;28;19960;-59
2022/08/07 06:43:36;;;;;;;;;;;;;;;15.98;72.49;102516.06;5041303;28;20349;-57
2022/08/07 06:46:13;;;;;;;;;;;;;;;16.04;71.44;102512.25;5034467;28;19967;-57
2022/08/07 06:48:47;;;;;;;;;;;;;;;16.09;71.43;102519.69;5055255;28;20409;-54
2022/08/07 06:51:19;;;;;;;;;;;;;;;16.17;71.49;102511.78;5050549;28;19921;-58
2022/08/07 06:54:02;;;;;;;;;;;;;;;16.22;71.03;102505.50;5038705;28;19921;-54
2022/08/07 06:56:50;;;;;;;;;;;;;;;16.26;70.45;102497.53;5038889;28;19920;-57
2022/08/07 06:59:26;;;;;;;;;;;;;;;16.30;70.20;102495.91;5037185;28;19927;-54
2022/08/07 07:02:20;;;;;;;;;;;;;;;16.34;69.85;102497.88;5041538;28;20018;-59
2022/08/07 07:05:07;;;;;;;;;;;;;;;16.40;69.15;102494.06;5057217;28;19936;-54
2022/08/07 07:07:39;;;;;;;;;;;;;;;16.46;69.10;102492.16;5074254;28;20268;-55
2022/08/07 07:10:32;;;;;;;;;;;;;;;16.52;68.36;102498.53;5074337;28;19920;-56
2022/08/07 07:13:06;;;;;;;;;;;;;;;16.55;68.02;102498.84;5037474;28;20278;-55
2022/08/07 07:15:39;;;;;;;;;;;;;;;16.57;67.35;102495.78;5039288;28;19928;-57
2022/08/07 07:18:13;;;;;;;;;;;;;;;16.55;68.06;102504.34;5056335;28;19920;-58
2022/08/07 07:21:04;;;;;;;;;;;;;;;16.55;67.74;102509.84;5059217;28;19920;-53
2022/08/07 07:23:39;;;;;;;;;;;;;;;16.66;67.29;102515.38;5051171;28;19929;-54
2022/08/07 07:26:27;;;;;;;;;;;;;;;16.71;66.32;102510.72;5065760;28;19924;-57
2022/08/07 07:29:03;;;;;;;;;;;;;;;16.73;66.19;102510.47;5052163;28;19921;-57
2022/08/07 07:31:51;;;;;;;;;;;;;;;16.80;65.88;102505.56;5053268;28;19928;-59
2022/08/07 07:34:24;;;;;;;;;;;;;;;16.82;66.08;102497.88;5052395;28;19921;-57
2022/08/07 07:36:59;;;;;;;;;;;;;;;16.88;66.12;102495.97;5052701;28;19921;-55
2022/08/07 07:39:47;;;;;;;;;;;;;;;16.94;64.96;102492.16;5048800;28;19939;-56
2022/08/07 07:42:25;;;;;;;;;;;;;;;16.97;65.31;102488.84;5052396;28;19921;-58
2022/08/07 07:45:00;;;;;;;;;;;;;;;17.01;65.09;102490.78;5050858;28;19921;-57
2022/08/07 07:47:29;;;;;;;;;;;;;;;17.02;64.88;102486.91;5052195;28;19963;-52
2022/08/07 07:50:16;;;;;;;;;;;;;;;17.05;64.73;102480.03;5050669;28;20287;-52
2022/08/07 07:53:03;;;;;;;;;;;;;;;17.10;65.42;102482.84;5051916;28;19962;-56
2022/08/07 07:55:30;;;;;;;;;;;;;;;17.13;65.26;102486.97;5053233;28;19924;-57
2022/08/07 07:58:12;;;;;;;;;;;;;;;17.14;65.03;102483.09;5046182;28;20379;-51
2022/08/07 08:00:40;;;;;;;;;;;;;;;17.16;65.38;102480.91;5051249;28;20275;-53
2022/08/07 08:03:12;;;;;;;;;;;;;;;17.17;64.83;102485.31;5050714;28;19928;-52
2022/08/07 08:05:59;;;;;;;;;;;;;;;17.19;63.78;102483.13;5026124;28;19925;-55
2022/08/07 08:08:28;;;;;;;;;;;;;;;17.21;63.39;102490.00;5052069;28;20375;-51
2022/08/07 08:11:00;;;;;;;;;;;;;;;17.24;63.48;102489.47;5046588;28;20455;-59
2022/08/07 08:13:30;;;;;;;;;;;;;;;17.32;63.08;102485.34;5051092;28;19921;-58
2022/08/07 08:16:18;;;;;;;;;;;;;;;17.36;63.28;102475.44;5047224;28;19920;-59
2022/08/07 08:18:52;;;;;;;;;;;;;;;17.40;63.56;102476.53;5052206;28;19952;-58
2022/08/07 08:27:14;;;;;;;;;;;;;;;17.61;63.04;102477.41;5051315;28;20044;-56
2022/08/07 08:29:45;;;;;;;;;;;;;;;17.68;62.27;102472.44;5051450;28;20294;-58
2022/08/07 08:32:24;;;;;;;;;;;;;;;17.72;62.12;102478.22;5057522;28;19921;-58
2022/08/07 08:35:06;;;;;;;;;;;;;;;17.73;62.10;102485.41;5056818;28;20444;-57
2022/08/07 08:37:34;;;;;;;;;;;;;;;17.80;61.94;102491.50;5055958;28;19928;-57
2022/08/07 08:40:26;;;;;;;;;;;;;;;17.87;61.76;102491.19;5056349;28;19927;-55
2022/08/07 08:42:57;;;;;;;;;;;;;;;17.93;61.08;102489.28;5054805;28;20015;-55
2022/08/07 08:45:27;;;;;;;;;;;;;;;17.96;61.23;102491.47;5038951;28;19940;-53
2022/08/07 08:48:24;;;;;;;;;;;;;;;17.99;61.33;102482.63;5039740;28;19928;-49
2022/08/07 08:51:06;;;;;;;;;;;;;;;18.03;61.17;102487.31;5040616;28;19920;-53
2022/08/07 08:54:00;;;;;;;;;;;;;;;18.07;61.36;102479.34;5054898;28;19925;-50
2022/08/07 08:56:32;;;;;;;;;;;;;;;18.12;61.09;102482.06;5055190;28;19928;-56
2022/08/07 08:59:05;;;;;;;;;;;;;;;18.19;60.07;102477.09;5053647;28;20427;-55
2022/08/07 09:01:55;;;;;;;;;;;;;;;18.20;60.11;102475.16;5050291;28;19972;-56
2022/08/07 09:04:46;;;;;;;;;;;;;;;18.22;59.88;102462.72;5051436;28;20387;-52
2022/08/07 09:07:43;;;;;;;;;;;;;;;18.29;59.65;102465.22;5045262;28;19927;-52
2022/08/07 09:10:38;;;;;;;;;;;;;;;18.30;59.91;102467.69;4991504;28;19920;-57
2022/08/07 09:13:14;;;;;;;;;;;;;;;18.31;59.88;102474.03;5052022;28;19920;-58
2022/08/07 09:15:43;;;;;;;;;;;;;;;18.33;59.62;102473.75;5056271;28;20383;-54
2022/08/07 09:18:37;;;;;;;;;;;;;;;18.37;59.86;102466.56;5056231;28;19929;-58
2022/08/07 09:21:10;;;;;;;;;;;;;;;18.39;58.46;102458.84;5056207;28;20367;-53
2022/08/07 09:24:09;;;;;;;;;;;;;;;18.38;58.27;102448.91;5055677;28;19921;-56
2022/08/07 09:27:02;;;;;;;;;;;;;;;18.41;58.00;102462.13;5056131;28;19943;-59
2022/08/07 09:29:42;;;;;;;;;;;;;;;18.45;57.94;102457.72;5074572;28;19932;-53
2022/08/07 09:32:52;;;;;;;;;;;;;;;18.46;57.86;102462.13;5075312;28;19928;-55
2022/08/07 09:35:38;;;;;;;;;;;;;;;18.50;57.25;102457.69;5058288;28;19934;-58
2022/08/07 09:38:42;;;;;;;;;;;;;;;18.51;57.23;102457.41;5076040;28;19920;-58
2022/08/07 09:41:19;;;;;;;;;;;;;;;18.54;57.43;102456.00;5058662;28;19926;-57
2022/08/07 09:44:01;;;;;;;;;;;;;;;18.61;57.30;102462.06;5075636;28;19927;-59
2022/08/07 09:46:52;;;;;;;;;;;;;;;18.66;57.29;102462.03;5075993;28;19920;-58
2022/08/07 09:49:42;;;;;;;;;;;;;;;18.69;57.28;102452.38;5064255;28;19943;-55
2022/08/07 09:52:36;;;;;;;;;;;;;;;18.74;57.22;102444.06;5075317;28;19924;-59
2022/08/07 09:55:29;;;;;;;;;;;;;;;18.76;56.26;102444.66;5075743;28;20423;-53
2022/08/07 09:58:28;;;;;;;;;;;;;;;18.80;55.75;102433.84;5061008;28;19924;-54
2022/08/07 10:01:05;;;;;;;;;;;;;;;18.81;55.91;102439.09;5058086;28;19920;-57
2022/08/07 10:04:10;;;;;;;;;;;;;;;18.92;55.76;102434.31;5075458;28;19921;-53
2022/08/07 10:06:47;;;;;;;;;;;;;;;18.98;55.33;102429.59;4987274;28;20387;-53
2022/08/07 10:09:42;;;;;;;;;;;;;;;18.90;55.35;102422.72;5053479;28;19963;-54
2022/08/07 10:12:41;;;;;;;;;;;;;;;18.80;56.07;102420.03;5075530;28;19921;-54
2022/08/07 10:15:22;;;;;;;;;;;;;;;18.74;54.61;102408.16;5075106;28;20007;-55
2022/08/07 10:18:08;;;;;;;;;;;;;;;18.84;54.67;102410.06;5075376;28;19921;-56
2022/08/07 10:21:01;;;;;;;;;;;;;;;18.98;54.66;102411.09;5075148;28;20355;-58
2022/08/07 10:23:52;;;;;;;;;;;;;;;19.11;53.61;102410.44;5049638;28;19927;-55
2022/08/07 10:26:56;;;;;;;;;;;;;;;19.09;54.03;102412.66;5072567;28;20014;-55
2022/08/07 10:29:28;;;;;;;;;;;;;;;19.06;53.81;102410.47;5057706;28;19920;-57
2022/08/07 10:32:06;;;;;;;;;;;;;;;19.09;53.93;102409.06;5074432;28;20188;-58
2022/08/07 10:35:02;;;;;;;;;;;;;;;19.16;53.37;102396.59;5066018;28;19975;-56
2022/08/07 10:37:44;;;;;;;;;;;;;;;19.23;53.62;102401.78;5058340;28;20371;-55
2022/08/07 10:40:51;;;;;;;;;;;;;;;19.29;53.15;102400.66;5060458;28;19921;-59
2022/08/07 10:43:27;;;;;;;;;;;;;;;19.34;52.47;102402.53;5074315;28;19920;-58
2022/08/07 10:46:04;;;;;;;;;;;;;;;19.38;52.66;102395.31;5041490;28;20018;-56
2022/08/07 10:48:39;;;;;;;;;;;;;;;19.36;52.04;102400.28;5074619;28;19920;-59
2022/08/07 10:51:13;;;;;;;;;;;;;;;19.34;52.02;102389.53;5055953;28;19920;-58
2022/08/07 10:54:11;;;;;;;;;;;;;;;19.41;51.31;102396.66;5059885;28;19920;-58
2022/08/07 10:56:49;;;;;;;;;;;;;;;19.46;51.50;102391.09;5044348;28;20007;-59
2022/08/07 10:59:26;;;;;;;;;;;;;;;19.55;50.11;102386.59;5056899;28;19960;-57
2022/08/07 11:02:16;;;;;;;;;;;;;;;19.59;50.14;102382.94;5046601;28;20367;-59
2022/08/07 11:05:18;;;;;;;;;;;;;;;19.60;50.40;102372.72;5039809;28;19982;-59
2022/08/07 11:07:56;;;;;;;;;;;;;;;19.66;50.25;102373.50;5070660;28;19920;-59
2022/08/07 11:10:39;;;;;;;;;;;;;;;19.75;49.71;102377.31;5074486;28;19921;-58
2022/08/07 11:13:23;;;;;;;;;;;;;;;19.87;48.85;102374.97;5057167;28;20448;-58
2022/08/07 11:16:14;;;;;;;;;;;;;;;19.93;49.48;102371.03;5059861;28;19920;-59
2022/08/07 11:18:50;;;;;;;;;;;;;;;19.94;49.58;102367.16;5058062;28;19927;-59
2022/08/07 11:21:18;;;;;;;;;;;;;;;19.97;49.21;102362.97;5056831;28;20015;-57
2022/08/07 11:24:08;;;;;;;;;;;;;;;19.87;49.42;102360.31;5073881;28;19998;-56
2022/08/07 11:26:38;;;;;;;;;;;;;;;19.85;50.99;102352.31;5057059;28;19920;-57
2022/08/07 11:29:23;;;;;;;;;;;;;;;19.93;49.16;102351.66;5073322;28;19928;-56
2022/08/07 11:32:20;;;;;;;;;;;;;;;20.00;48.76;102354.06;5073742;28;19974;-53
2022/08/07 11:34:54;;;;;;;;;;;;;;;20.13;47.47;102360.84;5056956;28;19967;-52
2022/08/07 11:37:27;;;;;;;;;;;;;;;20.20;47.32;102345.53;5056276;28;19986;-54
2022/08/07 11:40:21;;;;;;;;;;;;;;;20.25;46.79;102344.63;5055727;28;19921;-55
2022/08/07 11:42:57;;;;;;;;;;;;;;;20.21;47.60;102349.13;5055938;28;19920;-56
2022/08/07 11:45:31;;;;;;;;;;;;;;;20.21;47.95;102338.06;5073342;28;19924;-54
2022/08/07 11:48:14;;;;;;;;;;;;;;;20.22;47.19;102329.44;5073225;28;20242;-55
2022/08/07 11:51:19;;;;;;;;;;;;;;;20.18;47.00;102339.47;5073502;28;20324;-55
2022/08/07 11:54:22;;;;;;;;;;;;;;;20.13;47.28;102336.78;5073246;28;19928;-55
2022/08/07 11:56:51;;;;;;;;;;;;;;;20.10;47.46;102336.53;5073474;28;20302;-55
2022/08/07 11:59:34;;;;;;;;;;;;;;;20.07;47.49;102331.59;5072770;28;19924;-56
2022/08/07 12:02:31;;;;;;;;;;;;;;;20.03;47.78;102328.56;5072907;28;19924;-55
2022/08/07 12:05:10;;;;;;;;;;;;;;;20.07;47.50;102326.06;5073223;28;19974;-57
2022/08/07 12:08:06;;;;;;;;;;;;;;;20.18;45.97;102322.03;5057773;28;20386;-54
2022/08/07 12:11:00;;;;;;;;;;;;;;;20.32;46.15;102322.94;5058196;28;20264;-56
2022/08/07 12:13:50;;;;;;;;;;;;;;;20.34;45.79;102317.13;5072953;28;19971;-56
2022/08/07 12:16:21;;;;;;;;;;;;;;;20.45;45.25;102317.81;5073291;28;19955;-56
2022/08/07 12:19:15;;;;;;;;;;;;;;;20.54;45.38;102318.75;5039939;28;19939;-53
2022/08/07 12:22:05;;;;;;;;;;;;;;;20.62;45.28;102316.19;5057074;28;19963;-55
2022/08/07 12:28:15;;;;;;;;;;;;;;;20.74;44.68;102315.72;5060850;28;19920;-55
2022/08/07 12:31:00;;;;;;;;;;;;;;;20.72;44.61;102306.91;5057449;28;19920;-54
2022/08/07 12:33:28;;;;;;;;;;;;;;;20.67;44.91;102306.97;5055646;28;19928;-55
2022/08/07 12:36:16;;;;;;;;;;;;;;;20.64;45.66;102308.41;5058346;28;19921;-55
2022/08/07 12:38:44;;;;;;;;;;;;;;;20.64;45.65;102302.03;5054922;28;19927;-57
2022/08/07 12:41:24;;;;;;;;;;;;;;;20.71;45.07;102307.19;5057521;28;20329;-56
2022/08/07 12:44:11;;;;;;;;;;;;;;;20.74;44.68;102301.88;5057733;28;20394;-57
2022/08/07 12:46:47;;;;;;;;;;;;;;;20.81;44.45;102302.31;5039079;28;19959;-57
2022/08/07 12:49:17;;;;;;;;;;;;;;;20.89;44.53;102295.25;5072732;28;20019;-57
2022/08/07 12:52:07;;;;;;;;;;;;;;;20.91;44.46;102295.78;5055053;28;19921;-56
2022/08/07 12:54:42;;;;;;;;;;;;;;;20.95;44.11;102296.00;5039079;28;20264;-56
2022/08/07 12:57:23;;;;;;;;;;;;;;;20.95;43.98;102285.75;5072229;28;19974;-56
2022/08/07 12:59:51;;;;;;;;;;;;;;;20.94;44.43;102288.81;5054921;28;20462;-55
2022/08/07 13:02:40;;;;;;;;;;;;;;;21.00;44.15;102284.84;5072995;28;20370;-55
2022/08/07 13:05:07;;;;;;;;;;;;;;;21.10;43.89;102289.41;5072532;28;19927;-53
2022/08/07 13:07:58;;;;;;;;;;;;;;;21.19;43.46;102301.41;5072650;28;19951;-55
2022/08/07 13:10:58;;;;;;;;;;;;;;;21.19;43.33;102277.31;5058279;28;19956;-55
2022/08/07 13:13:33;;;;;;;;;;;;;;;21.16;43.19;102277.88;5055079;28;19920;-54
2022/08/07 13:16:20;;;;;;;;;;;;;;;21.17;43.31;102275.97;5075428;28;19974;-54
2022/08/07 13:19:07;;;;;;;;;;;;;;;21.18;42.40;102275.63;5041976;28;19932;-53
2022/08/07 13:21:52;;;;;;;;;;;;;;;21.18;42.77;102267.31;5076052;28;20023;-56
2022/08/07 13:24:34;;;;;;;;;;;;;;;21.22;42.55;102270.31;5059785;28;20026;-54
2022/08/07 13:27:20;;;;;;;;;;;;;;;21.28;42.00;102274.63;5046336;28;19920;-57
2022/08/07 13:29:50;;;;;;;;;;;;;;;21.26;42.19;102265.78;5058297;28;20014;-54
2022/08/07 13:32:20;;;;;;;;;;;;;;;21.28;41.58;102271.84;5058404;28;20023;-57
2022/08/07 13:35:06;;;;;;;;;;;;;;;21.30;41.52;102264.06;5075600;28;19921;-54
2022/08/07 13:37:52;;;;;;;;;;;;;;;21.33;41.62;102262.63;5058205;28;20432;-57